createdAt,value
2019-02-04T00:02:15.674Z,83.99
2019-02-04T00:04:45.883Z,84.15
2019-02-04T00:07:16.116Z,84.14
2019-02-04T00:09:46.375Z,84.14
2019-02-04T00:12:16.645Z,84.24
2019-02-04T00:14:46.927Z,84.30
2019-02-04T00:17:17.195Z,84.30
2019-02-04T00:19:47.502Z,84.25
2019-02-04T00:22:17.716Z,84.39
2019-02-04T00:24:47.892Z,84.37
2019-02-04T00:27:18.152Z,84.39
2019-02-04T00:29:48.375Z,84.49
2019-02-04T00:32:18.621Z,84.56
2019-02-04T00:34:49.160Z,84.37
2019-02-04T00:37:19.316Z,84.49
2019-02-04T00:39:49.599Z,84.45
2019-02-04T00:42:19.866Z,84.41
2019-02-04T00:44:50.122Z,84.39
2019-02-04T00:47:20.412Z,84.47
2019-02-04T00:49:50.595Z,84.51
2019-02-04T00:52:20.858Z,84.40
2019-02-04T00:54:50.963Z,84.54
2019-02-04T00:57:21.163Z,84.62
2019-02-04T00:59:51.457Z,84.57
2019-02-04T01:02:21.940Z,84.52
2019-02-04T01:04:52.252Z,84.57
2019-02-04T01:07:22.586Z,84.50
2019-02-04T01:09:52.866Z,84.62
2019-02-04T01:12:23.085Z,84.59
2019-02-04T01:14:53.681Z,84.64
2019-02-04T01:17:23.923Z,84.74
2019-02-04T01:19:53.987Z,84.71
2019-02-04T01:22:24.181Z,84.68
2019-02-04T01:24:54.328Z,84.72
2019-02-04T01:27:24.540Z,84.67
2019-02-04T01:29:54.679Z,84.68
2019-02-04T01:32:24.881Z,84.65
2019-02-04T01:34:55.056Z,84.58
2019-02-04T01:37:25.304Z,84.48
2019-02-04T01:39:55.516Z,84.48
2019-02-04T01:42:25.740Z,84.54
2019-02-04T01:44:55.949Z,84.60
2019-02-04T01:47:26.143Z,84.56
2019-02-04T01:49:56.298Z,84.50
2019-02-04T01:52:35.817Z,84.45
2019-02-04T01:55:08.103Z,84.50
2019-02-04T01:57:38.311Z,84.54
2019-02-04T02:00:17.263Z,84.55
2019-02-04T02:02:47.551Z,84.49
2019-02-04T02:05:18.106Z,84.41
2019-02-04T02:07:48.573Z,84.36
2019-02-04T02:10:21.424Z,84.35
2019-02-04T02:12:51.830Z,84.39
2019-02-04T02:15:22.380Z,84.40
2019-02-04T02:17:52.765Z,84.40
2019-02-04T02:20:26.252Z,84.38
2019-02-04T02:22:56.639Z,84.34
2019-02-04T02:25:26.878Z,84.36
2019-02-04T02:27:57.233Z,84.27
2019-02-04T02:30:31.055Z,84.24
2019-02-04T02:33:01.624Z,84.18
2019-02-04T02:35:31.940Z,84.21
2019-02-04T02:38:02.231Z,84.16
2019-02-04T02:40:36.253Z,84.15
2019-02-04T02:43:06.973Z,84.15
2019-02-04T02:45:37.136Z,84.15
2019-02-04T02:48:07.391Z,84.17
2019-02-04T02:50:37.583Z,84.14
2019-02-04T02:53:08.041Z,84.18
2019-02-04T02:55:38.534Z,84.19
2019-02-04T02:58:08.952Z,84.17
2019-02-04T03:00:39.187Z,84.13
2019-02-04T03:03:09.514Z,84.06
2019-02-04T03:05:39.729Z,84.01
2019-02-04T03:08:10.044Z,84.06
2019-02-04T03:10:40.289Z,84.11
2019-02-04T03:13:10.600Z,84.08
2019-02-04T03:15:40.718Z,84.00
2019-02-04T03:18:10.985Z,84.05
2019-02-04T03:20:41.150Z,84.00
2019-02-04T03:23:11.519Z,83.96
2019-02-04T03:25:41.651Z,84.00
2019-02-04T03:28:11.966Z,83.98
2019-02-04T03:30:42.249Z,83.98
2019-02-04T03:33:12.556Z,84.03
2019-02-04T03:35:43.144Z,83.98
2019-02-04T03:38:13.315Z,84.06
2019-02-04T03:40:43.582Z,84.01
2019-02-04T03:43:13.831Z,83.96
2019-02-04T03:45:44.033Z,84.02
2019-02-04T03:48:14.266Z,84.03
2019-02-04T03:50:44.545Z,84.01
2019-02-04T03:53:14.766Z,84.03
2019-02-04T03:55:45.008Z,83.97
2019-02-04T03:58:15.319Z,83.94
2019-02-04T04:00:45.687Z,83.97
2019-02-04T04:03:15.948Z,83.96
2019-02-04T04:05:46.104Z,83.97
2019-02-04T04:08:16.377Z,83.91
2019-02-04T04:10:46.661Z,83.93
2019-02-04T04:13:16.936Z,83.94
2019-02-04T04:15:47.350Z,83.90
2019-02-04T04:18:17.655Z,83.91
2019-02-04T04:20:47.966Z,83.91
2019-02-04T04:23:21.113Z,83.95
2019-02-04T04:25:51.441Z,83.96
2019-02-04T04:28:21.971Z,83.97
2019-02-04T04:30:52.248Z,83.96
2019-02-04T04:33:22.617Z,83.95
2019-02-04T04:35:52.805Z,84.00
2019-02-04T04:38:23.059Z,84.00
2019-02-04T04:40:53.396Z,83.99
2019-02-04T04:43:23.614Z,84.00
2019-02-04T04:45:53.782Z,83.94
2019-02-04T04:48:26.706Z,83.92
2019-02-04T04:50:56.034Z,84.00
2019-02-04T04:53:26.303Z,83.96
2019-02-04T04:55:56.542Z,83.97
2019-02-04T04:58:26.703Z,83.97
2019-02-04T05:00:57.002Z,83.93
2019-02-04T05:03:27.347Z,83.94
2019-02-04T05:05:57.571Z,83.99
2019-02-04T05:08:28.266Z,83.97
2019-02-04T05:10:58.817Z,83.95
2019-02-04T05:13:28.958Z,83.98
2019-02-04T05:15:59.241Z,83.97
2019-02-04T05:18:37.852Z,83.96
2019-02-04T05:21:01.468Z,83.94
2019-02-04T05:23:31.712Z,83.94
2019-02-04T05:26:01.964Z,83.99
2019-02-04T05:28:32.250Z,84.07
2019-02-04T05:31:02.535Z,84.07
2019-02-04T05:33:32.875Z,84.03
2019-02-04T05:36:03.096Z,83.96
2019-02-04T05:38:33.419Z,83.95
2019-02-04T05:41:03.714Z,84.10
2019-02-04T05:43:33.896Z,84.14
2019-02-04T05:46:04.729Z,84.08
2019-02-04T05:48:35.158Z,84.13
2019-02-04T05:51:05.494Z,84.16
2019-02-04T05:53:35.746Z,84.17
2019-02-04T05:56:07.144Z,84.09
2019-02-04T05:58:37.375Z,84.08
2019-02-04T06:01:07.907Z,84.08
2019-02-04T06:03:38.134Z,84.18
2019-02-04T06:06:08.434Z,84.14
2019-02-04T06:08:38.709Z,84.11
2019-02-04T06:11:09.063Z,84.20
2019-02-04T06:13:39.179Z,84.17
2019-02-04T06:16:09.491Z,84.18
2019-02-04T06:18:39.732Z,84.16
2019-02-04T06:21:10.113Z,84.16
2019-02-04T06:23:40.228Z,84.09
2019-02-04T06:26:11.570Z,84.08
2019-02-04T06:28:41.993Z,84.12
2019-02-04T06:31:12.933Z,84.10
2019-02-04T06:33:43.296Z,84.08
2019-02-04T06:36:16.545Z,84.16
2019-02-04T06:38:55.315Z,84.05
2019-02-04T06:41:27.488Z,84.03
2019-02-04T06:43:57.811Z,84.06
2019-02-04T06:46:28.055Z,84.12
2019-02-04T06:48:58.442Z,84.06
2019-02-04T06:51:31.908Z,84.04
2019-02-04T06:54:04.395Z,84.12
2019-02-04T06:56:36.084Z,84.11
2019-02-04T06:59:07.378Z,84.04
2019-02-04T07:01:40.703Z,84.07
2019-02-04T07:04:11.367Z,84.03
2019-02-04T07:06:41.632Z,84.02
2019-02-04T07:09:13.046Z,83.94
2019-02-04T07:11:43.372Z,83.96
2019-02-04T07:14:13.676Z,83.90
2019-02-04T07:16:44.079Z,83.86
2019-02-04T07:19:23.947Z,83.85
2019-02-04T07:21:46.341Z,83.80
2019-02-04T07:24:16.606Z,83.82
2019-02-04T07:26:46.853Z,83.87
2019-02-04T07:29:17.278Z,83.88
2019-02-04T07:31:47.874Z,83.87
2019-02-04T07:34:18.186Z,83.84
2019-02-04T07:36:48.497Z,83.80
2019-02-04T07:39:18.852Z,83.74
2019-02-04T07:41:49.120Z,83.71
2019-02-04T07:44:19.654Z,83.75
2019-02-04T07:46:51.011Z,83.69
2019-02-04T07:49:21.428Z,83.61
2019-02-04T07:51:51.793Z,83.56
2019-02-04T07:54:22.194Z,83.53
2019-02-04T07:56:52.789Z,83.53
2019-02-04T07:59:22.981Z,83.51
2019-02-04T08:01:53.223Z,83.49
2019-02-04T08:04:23.517Z,83.43
2019-02-04T08:06:53.849Z,83.37
2019-02-04T08:09:24.111Z,83.37
2019-02-04T08:11:54.805Z,83.32
2019-02-04T08:14:25.342Z,83.25
2019-02-04T08:16:55.548Z,83.19
2019-02-04T08:19:28.076Z,83.16
2019-02-04T08:21:58.355Z,83.15
2019-02-04T08:24:33.994Z,83.05
2019-02-04T08:27:04.334Z,83.05
2019-02-04T08:29:36.960Z,83.00
2019-02-04T08:32:07.236Z,82.89
2019-02-04T08:34:37.451Z,82.86
2019-02-04T08:37:08.219Z,82.84
2019-02-04T08:39:38.583Z,82.81
2019-02-04T08:42:08.963Z,82.71
2019-02-04T08:44:39.213Z,82.62
2019-02-04T08:47:09.465Z,82.52
2019-02-04T08:49:39.763Z,82.42
2019-02-04T08:52:10.301Z,82.29
2019-02-04T08:54:40.568Z,82.24
2019-02-04T08:57:11.112Z,82.14
2019-02-04T08:59:41.744Z,82.00
2019-02-04T09:02:12.177Z,81.90
2019-02-04T09:04:42.632Z,81.86
2019-02-04T09:07:12.861Z,81.81
2019-02-04T09:09:43.139Z,81.75
2019-02-04T09:12:13.743Z,81.67
2019-02-04T09:14:44.059Z,81.54
2019-02-04T09:17:14.277Z,81.44
2019-02-04T09:19:44.609Z,81.40
2019-02-04T09:22:14.957Z,81.23
2019-02-04T09:24:45.211Z,81.28
2019-02-04T09:27:16.706Z,81.22
2019-02-04T09:29:47.010Z,81.07
2019-02-04T09:32:19.000Z,81.00
2019-02-04T09:34:49.634Z,80.82
2019-02-04T09:37:19.974Z,80.81
2019-02-04T09:39:50.304Z,80.65
2019-02-04T09:42:20.597Z,80.63
2019-02-04T09:44:50.843Z,80.51
2019-02-04T09:47:21.140Z,80.50
2019-02-04T09:49:51.450Z,80.49
2019-02-04T09:52:21.585Z,80.38
2019-02-04T09:54:51.833Z,80.39
2019-02-04T09:57:22.124Z,80.18
2019-02-04T09:59:52.521Z,79.97
2019-02-04T10:02:23.326Z,79.81
2019-02-04T10:04:53.635Z,79.75
2019-02-04T10:07:24.212Z,79.67
2019-02-04T10:09:54.557Z,79.37
2019-02-04T10:12:24.607Z,79.30
2019-02-04T10:14:55.235Z,79.27
2019-02-04T10:17:25.517Z,79.18
2019-02-04T10:19:55.913Z,78.94
2019-02-04T10:22:28.566Z,78.83
2019-02-04T10:24:58.898Z,78.57
2019-02-04T10:27:29.663Z,78.50
2019-02-04T10:30:00.042Z,78.58
2019-02-04T10:32:30.398Z,78.43
2019-02-04T10:35:00.958Z,78.10
2019-02-04T10:37:31.445Z,77.95
2019-02-04T10:40:01.747Z,77.86
2019-02-04T10:42:35.191Z,77.53
2019-02-04T10:45:08.160Z,77.52
2019-02-04T10:47:38.897Z,77.44
2019-02-04T10:50:29.506Z,76.85
2019-02-04T10:53:02.595Z,76.92
2019-02-04T10:55:33.011Z,76.80
2019-02-04T10:58:06.458Z,76.71
2019-02-04T11:00:36.963Z,76.44
2019-02-04T11:03:09.074Z,76.51
2019-02-04T11:05:39.828Z,76.49
2019-02-04T11:08:11.434Z,76.25
2019-02-04T11:10:42.412Z,76.00
2019-02-04T11:13:17.947Z,76.04
2019-02-04T11:15:50.668Z,75.97
2019-02-04T11:18:20.980Z,75.74
2019-02-04T11:20:58.064Z,75.67
2019-02-04T11:23:24.517Z,75.54
2019-02-04T11:25:54.801Z,75.66
2019-02-04T11:28:26.679Z,75.40
2019-02-04T11:31:03.186Z,75.05
2019-02-04T11:33:33.615Z,75.09
2019-02-04T11:36:06.538Z,75.07
2019-02-04T11:38:37.472Z,74.99
2019-02-04T11:41:08.154Z,74.76
2019-02-04T11:43:42.751Z,74.51
2019-02-04T11:46:13.189Z,74.32
2019-02-04T11:48:45.712Z,74.20
2019-02-04T11:51:18.286Z,74.08
2019-02-04T11:53:49.519Z,74.06
2019-02-04T11:56:23.178Z,73.99
2019-02-04T11:58:53.583Z,73.91
2019-02-04T12:01:23.986Z,73.72
2019-02-04T12:03:54.645Z,73.43
2019-02-04T12:06:28.074Z,73.41
2019-02-04T12:09:01.234Z,73.27
2019-02-04T12:11:31.685Z,73.12
2019-02-04T12:14:02.189Z,73.15
2019-02-04T12:16:32.540Z,73.04
2019-02-04T12:19:03.496Z,73.02
2019-02-04T12:21:34.530Z,72.82
2019-02-04T12:24:05.117Z,72.76
2019-02-04T12:26:35.394Z,72.58
2019-02-04T12:29:08.717Z,72.57
2019-02-04T12:31:39.251Z,72.55
2019-02-04T12:34:10.163Z,72.46
2019-02-04T12:36:40.489Z,72.53
2019-02-04T12:39:19.798Z,72.50
2019-02-04T12:41:50.744Z,72.20
2019-02-04T12:44:21.411Z,72.06
2019-02-04T12:46:51.747Z,72.05
2019-02-04T12:49:25.745Z,72.02
2019-02-04T12:51:56.263Z,72.03
2019-02-04T12:54:26.828Z,72.01
2019-02-04T12:56:57.152Z,71.95
2019-02-04T12:59:27.551Z,71.86
2019-02-04T13:01:57.961Z,71.88
2019-02-04T13:04:28.289Z,71.92
2019-02-04T13:06:59.007Z,71.71
2019-02-04T13:09:29.238Z,71.68
2019-02-04T13:11:59.568Z,71.82
2019-02-04T13:14:29.770Z,71.80
2019-02-04T13:17:00.150Z,71.83
2019-02-04T13:19:30.369Z,71.74
2019-02-04T13:22:00.806Z,71.77
2019-02-04T13:24:31.147Z,71.62
2019-02-04T13:27:01.431Z,71.43
2019-02-04T13:29:31.650Z,71.30
2019-02-04T13:32:02.083Z,71.23
2019-02-04T13:34:32.542Z,70.93
2019-02-04T13:37:02.788Z,70.92
2019-02-04T13:39:35.234Z,70.93
2019-02-04T13:42:06.996Z,70.89
2019-02-04T13:44:37.368Z,70.77
2019-02-04T13:47:08.129Z,70.66
2019-02-04T13:49:38.325Z,70.60
2019-02-04T13:52:08.624Z,70.60
2019-02-04T13:54:39.007Z,70.62
2019-02-04T13:57:09.345Z,70.69
2019-02-04T13:59:40.143Z,70.64
2019-02-04T14:02:13.712Z,70.52
2019-02-04T14:04:46.798Z,70.68
2019-02-04T14:07:21.341Z,70.92
2019-02-04T14:09:53.450Z,71.15
2019-02-04T14:12:25.059Z,71.41
2019-02-04T14:14:55.654Z,71.82
2019-02-04T14:17:25.919Z,72.26
2019-02-04T14:19:58.163Z,72.70
2019-02-04T14:22:28.447Z,73.06
2019-02-04T14:24:58.727Z,73.34
2019-02-04T14:27:29.068Z,73.64
2019-02-04T14:29:59.417Z,73.89
2019-02-04T14:32:29.657Z,74.13
2019-02-04T14:35:01.180Z,74.29
2019-02-04T14:37:31.452Z,74.52
2019-02-04T14:40:01.700Z,74.85
2019-02-04T14:42:31.974Z,75.10
2019-02-04T14:45:54.210Z,75.71
2019-02-04T14:49:24.586Z,76.01
2019-02-04T14:53:08.933Z,76.40
2019-02-04T14:56:12.883Z,76.90
2019-02-04T14:59:29.089Z,77.10
2019-02-04T15:02:35.977Z,77.35
2019-02-04T15:05:31.068Z,77.46
2019-02-04T15:09:04.569Z,77.91
2019-02-04T15:12:16.351Z,78.09
2019-02-04T15:15:47.477Z,78.61
2019-02-04T15:19:27.219Z,78.51
2019-02-04T15:22:48.071Z,78.68
2019-02-04T15:26:17.853Z,78.92
2019-02-04T15:29:31.826Z,79.19
2019-02-04T15:33:13.745Z,79.76
2019-02-04T15:36:52.222Z,79.98
2019-02-04T15:40:10.460Z,80.02
2019-02-04T15:43:26.649Z,80.39
2019-02-04T15:46:25.671Z,80.55
2019-02-04T15:50:11.480Z,80.79
2019-02-04T15:52:45.648Z,80.88
2019-02-04T15:55:18.555Z,81.00
2019-02-04T15:57:48.884Z,80.93
2019-02-04T16:00:19.461Z,81.00
2019-02-04T16:02:52.223Z,81.05
2019-02-04T16:05:22.842Z,81.07
2019-02-04T16:07:53.131Z,81.34
2019-02-04T16:10:23.454Z,81.41
2019-02-04T16:12:53.884Z,81.45
2019-02-04T16:15:24.395Z,81.45
2019-02-04T16:17:54.640Z,81.54
2019-02-04T16:20:26.448Z,81.51
2019-02-04T16:22:59.782Z,81.65
2019-02-04T16:25:56.732Z,81.71
2019-02-04T16:28:34.334Z,81.62
2019-02-04T16:31:05.028Z,81.83
2019-02-04T16:33:35.832Z,81.89
2019-02-04T16:36:07.420Z,81.94
2019-02-04T16:38:42.178Z,82.26
2019-02-04T16:41:28.199Z,82.33
2019-02-04T16:44:06.276Z,82.32
2019-02-04T16:46:45.171Z,82.46
2019-02-04T16:50:25.126Z,82.46
2019-02-04T16:53:10.075Z,82.51
2019-02-04T16:55:49.071Z,82.46
2019-02-04T16:59:12.481Z,82.45
2019-02-04T17:01:55.682Z,82.46
2019-02-04T17:04:55.688Z,82.48
2019-02-04T17:08:33.736Z,82.58
2019-02-04T17:11:44.095Z,82.74
2019-02-04T17:14:58.078Z,82.84
2019-02-04T17:17:21.238Z,82.92
2019-02-04T17:19:58.084Z,82.90
2019-02-04T17:22:30.430Z,83.03
2019-02-04T17:25:18.492Z,83.04
2019-02-04T17:27:58.744Z,83.04
2019-02-04T17:30:55.042Z,83.15
2019-02-04T17:33:31.909Z,83.20
2019-02-04T17:36:07.217Z,83.22
2019-02-04T17:38:37.728Z,83.26
2019-02-04T17:41:08.159Z,83.35
2019-02-04T17:43:38.561Z,83.37
2019-02-04T17:46:08.938Z,83.49
2019-02-04T17:48:39.301Z,83.62
2019-02-04T17:51:09.641Z,83.60
2019-02-04T17:53:39.994Z,83.71
2019-02-04T17:56:11.452Z,83.73
2019-02-04T17:58:46.485Z,83.70
2019-02-04T18:01:19.807Z,83.68
2019-02-04T18:03:50.149Z,83.65
2019-02-04T18:06:20.677Z,83.69
2019-02-04T18:08:50.952Z,83.71
2019-02-04T18:11:21.336Z,83.78
2019-02-04T18:13:51.700Z,83.82
2019-02-04T18:16:25.074Z,83.78
2019-02-04T18:18:55.371Z,83.81
2019-02-04T18:21:25.650Z,83.86
2019-02-04T18:23:59.119Z,83.88
2019-02-04T18:29:20.421Z,83.87
2019-02-04T18:31:50.784Z,83.95
2019-02-04T18:34:21.098Z,83.91
2019-02-04T18:36:52.589Z,83.92
2019-02-04T18:39:26.630Z,83.93
2019-02-04T18:41:56.862Z,84.06
2019-02-04T18:44:29.729Z,84.11
2019-02-04T18:47:02.132Z,84.11
2019-02-04T18:49:32.494Z,84.08
2019-02-04T18:52:07.430Z,84.10
2019-02-04T18:54:39.377Z,84.19
2019-02-04T18:57:14.108Z,84.19
2019-02-04T18:59:44.443Z,84.31
2019-02-04T19:02:16.114Z,84.40
2019-02-04T19:04:46.461Z,84.41
2019-02-04T19:07:16.805Z,84.37
2019-02-04T19:09:50.955Z,84.54
2019-02-04T19:12:28.880Z,84.50
2019-02-04T19:14:59.329Z,84.50
2019-02-04T19:17:36.156Z,84.51
2019-02-04T19:20:09.761Z,84.65
2019-02-04T19:22:40.581Z,84.61
2019-02-04T19:25:11.845Z,84.66
2019-02-04T19:27:42.239Z,84.70
2019-02-04T19:30:47.024Z,84.70
2019-02-04T19:33:17.394Z,84.76
2019-02-04T19:35:49.296Z,84.97
2019-02-04T19:38:23.310Z,85.01
2019-02-04T19:40:53.319Z,84.94
2019-02-04T19:43:27.412Z,84.98
2019-02-04T19:46:01.174Z,84.99
2019-02-04T19:48:36.553Z,84.99
2019-02-04T19:51:07.465Z,85.08
2019-02-04T19:53:38.441Z,85.07
2019-02-04T19:56:24.750Z,85.04
2019-02-04T19:58:57.316Z,85.00
2019-02-04T20:01:30.692Z,84.99
2019-02-04T20:04:01.783Z,84.95
2019-02-04T20:06:32.751Z,84.96
2019-02-04T20:09:06.489Z,84.99
2019-02-04T20:11:40.540Z,85.03
2019-02-04T20:14:17.274Z,85.06
2019-02-04T20:16:48.169Z,84.99
2019-02-04T20:19:32.734Z,85.00
2019-02-04T20:22:03.454Z,85.06
2019-02-04T20:24:38.319Z,85.17
2019-02-04T20:27:16.642Z,85.21
2019-02-04T20:29:52.100Z,85.22
2019-02-04T20:32:22.872Z,85.29
2019-02-04T20:34:59.541Z,85.29
2019-02-04T20:37:30.203Z,85.28
2019-02-04T20:40:01.023Z,85.37
2019-02-04T20:42:31.533Z,85.38
2019-02-04T20:45:03.165Z,85.42
2019-02-04T20:47:33.752Z,85.45
2019-02-04T20:50:04.502Z,85.37
2019-02-04T20:52:35.115Z,85.37
2019-02-04T20:55:07.585Z,85.37
2019-02-04T20:57:38.256Z,85.47
2019-02-04T21:00:13.862Z,85.65
2019-02-04T21:02:44.425Z,85.56
2019-02-04T21:05:19.384Z,85.54
2019-02-04T21:07:50.075Z,85.53
2019-02-04T21:10:22.410Z,85.59
2019-02-04T21:12:53.052Z,85.60
2019-02-04T21:15:24.135Z,85.60
2019-02-04T21:17:54.708Z,85.64
2019-02-04T21:20:26.619Z,85.62
2019-02-04T21:22:57.405Z,85.61
2019-02-04T21:25:28.197Z,85.57
2019-02-04T21:27:58.805Z,85.60
2019-02-04T21:30:32.640Z,85.61
2019-02-04T21:33:03.246Z,85.62
2019-02-04T21:35:33.982Z,85.63
2019-02-04T21:38:05.423Z,85.61
2019-02-04T21:40:37.366Z,85.63
2019-02-04T21:43:08.038Z,85.65
2019-02-04T21:45:38.736Z,85.72
2019-02-04T21:48:09.672Z,85.72
2019-02-04T21:50:40.498Z,85.71
2019-02-04T21:53:11.425Z,85.70
2019-02-04T21:55:42.184Z,85.66
2019-02-04T21:58:12.942Z,85.69
2019-02-04T22:00:43.577Z,85.65
2019-02-04T22:03:14.047Z,85.62
2019-02-04T22:05:44.771Z,85.69
2019-02-04T22:08:15.451Z,85.70
2019-02-04T22:10:46.414Z,85.72
2019-02-04T22:13:16.772Z,85.82
2019-02-04T22:15:47.480Z,85.89
2019-02-04T22:18:17.838Z,85.94
2019-02-04T22:20:48.468Z,86.04
2019-02-04T22:23:18.899Z,86.06
2019-02-04T22:25:49.307Z,86.11
2019-02-04T22:28:19.612Z,86.06
2019-02-04T22:30:51.865Z,86.05
2019-02-04T22:33:22.240Z,86.09
2019-02-04T22:35:52.830Z,86.13
2019-02-04T22:38:23.272Z,86.10
2019-02-04T22:40:53.682Z,86.10
2019-02-04T22:43:24.063Z,86.09
2019-02-04T22:45:54.435Z,86.14
2019-02-04T22:48:25.258Z,86.10
2019-02-04T22:50:55.581Z,86.11
2019-02-04T22:53:25.908Z,86.17
2019-02-04T22:55:56.352Z,86.14
2019-02-04T22:58:26.679Z,86.12
2019-02-04T23:01:23.556Z,86.18
2019-02-04T23:03:53.904Z,86.13
2019-02-04T23:06:24.418Z,86.14
2019-02-04T23:09:02.823Z,86.17
2019-02-04T23:11:33.183Z,86.14
2019-02-04T23:14:03.429Z,86.09
2019-02-04T23:16:33.817Z,86.03
2019-02-04T23:19:04.201Z,86.01
2019-02-04T23:21:34.578Z,86.03
2019-02-04T23:24:05.770Z,86.03
2019-02-04T23:26:36.172Z,86.04
2019-02-04T23:29:07.487Z,86.09
2019-02-04T23:31:37.936Z,86.13
2019-02-04T23:34:08.333Z,86.12
2019-02-04T23:36:38.783Z,86.17
2019-02-04T23:41:47.764Z,85.94
2019-02-04T23:44:18.153Z,85.95
2019-02-04T23:46:48.692Z,86.00
2019-02-04T23:49:18.988Z,86.06
2019-02-04T23:51:49.528Z,86.16
2019-02-04T23:54:19.923Z,86.13
2019-02-04T23:56:50.265Z,86.23
2019-02-04T23:59:20.555Z,86.33
